sensor_id;sensor_type;location;lat;lon;timestamp;P1;durP1;ratioP1;P2;durP2;ratioP2
63807;SDS011;49961;43.970;22.868;2022-11-20T00:00:52;13.07;;;10.23;;
63807;SDS011;49961;43.970;22.868;2022-11-20T00:01:52;11.87;;;10.67;;
63807;SDS011;49961;43.970;22.868;2022-11-20T00:02:53;11.33;;;10.07;;
63807;SDS011;49961;43.970;22.868;2022-11-20T00:03:54;12.27;;;10.77;;
63807;SDS011;49961;43.970;22.868;2022-11-20T00:04:56;11.60;;;10.40;;
63807;SDS011;49961;43.970;22.868;2022-11-20T00:06:06;12.87;;;9.37;;
63807;SDS011;49961;43.970;22.868;2022-11-20T00:07:08;11.27;;;9.67;;
63807;SDS011;49961;43.970;22.868;2022-11-20T00:08:08;10.20;;;9.20;;
63807;SDS011;49961;43.970;22.868;2022-11-20T00:09:09;12.07;;;10.00;;
63807;SDS011;49961;43.970;22.868;2022-11-20T00:10:10;10.87;;;9.77;;
63807;SDS011;49961;43.970;22.868;2022-11-20T00:11:15;10.13;;;8.93;;
63807;SDS011;49961;43.970;22.868;2022-11-20T00:12:17;11.20;;;9.33;;
63807;SDS011;49961;43.970;22.868;2022-11-20T00:13:17;10.47;;;9.33;;
63807;SDS011;49961;43.970;22.868;2022-11-20T00:14:17;11.20;;;10.00;;
63807;SDS011;49961;43.970;22.868;2022-11-20T00:15:18;12.97;;;9.83;;
63807;SDS011;49961;43.970;22.868;2022-11-20T00:16:19;10.40;;;9.30;;
63807;SDS011;49961;43.970;22.868;2022-11-20T00:17:22;11.53;;;9.33;;
63807;SDS011;49961;43.970;22.868;2022-11-20T00:18:23;10.57;;;9.43;;
63807;SDS011;49961;43.970;22.868;2022-11-20T00:19:23;11.57;;;9.50;;
63807;SDS011;49961;43.970;22.868;2022-11-20T00:20:24;11.13;;;10.03;;
63807;SDS011;49961;43.970;22.868;2022-11-20T00:21:25;12.23;;;10.93;;
63807;SDS011;49961;43.970;22.868;2022-11-20T00:22:27;11.03;;;9.70;;
63807;SDS011;49961;43.970;22.868;2022-11-20T00:23:27;10.87;;;9.50;;
63807;SDS011;49961;43.970;22.868;2022-11-20T00:24:28;10.00;;;8.90;;
63807;SDS011;49961;43.970;22.868;2022-11-20T00:25:28;10.20;;;9.20;;
63807;SDS011;49961;43.970;22.868;2022-11-20T00:26:29;9.63;;;8.63;;
63807;SDS011;49961;43.970;22.868;2022-11-20T00:27:30;11.13;;;9.93;;
63807;SDS011;49961;43.970;22.868;2022-11-20T00:28:30;12.73;;;9.87;;
63807;SDS011;49961;43.970;22.868;2022-11-20T00:29:31;11.80;;;10.57;;
63807;SDS011;49961;43.970;22.868;2022-11-20T00:30:31;12.13;;;10.83;;
63807;SDS011;49961;43.970;22.868;2022-11-20T00:31:31;13.13;;;10.87;;
63807;SDS011;49961;43.970;22.868;2022-11-20T00:32:33;12.43;;;11.23;;
63807;SDS011;49961;43.970;22.868;2022-11-20T00:33:33;14.50;;;11.53;;
63807;SDS011;49961;43.970;22.868;2022-11-20T00:34:34;12.73;;;11.47;;
63807;SDS011;49961;43.970;22.868;2022-11-20T00:35:35;13.20;;;11.80;;
63807;SDS011;49961;43.970;22.868;2022-11-20T00:36:35;13.93;;;11.73;;
63807;SDS011;49961;43.970;22.868;2022-11-20T00:37:36;13.03;;;11.67;;
63807;SDS011;49961;43.970;22.868;2022-11-20T00:38:36;13.13;;;11.83;;
63807;SDS011;49961;43.970;22.868;2022-11-20T00:39:37;12.90;;;11.53;;
63807;SDS011;49961;43.970;22.868;2022-11-20T00:40:37;13.70;;;11.70;;
63807;SDS011;49961;43.970;22.868;2022-11-20T00:41:38;13.13;;;11.80;;
63807;SDS011;49961;43.970;22.868;2022-11-20T00:42:38;12.83;;;11.40;;
63807;SDS011;49961;43.970;22.868;2022-11-20T00:43:38;13.53;;;12.00;;
63807;SDS011;49961;43.970;22.868;2022-11-20T00:44:39;12.97;;;11.60;;
63807;SDS011;49961;43.970;22.868;2022-11-20T00:45:40;13.73;;;12.33;;
63807;SDS011;49961;43.970;22.868;2022-11-20T00:46:40;13.80;;;12.33;;
63807;SDS011;49961;43.970;22.868;2022-11-20T00:47:40;14.73;;;11.60;;
63807;SDS011;49961;43.970;22.868;2022-11-20T00:48:41;13.27;;;11.73;;
63807;SDS011;49961;43.970;22.868;2022-11-20T00:49:42;15.47;;;13.00;;
63807;SDS011;49961;43.970;22.868;2022-11-20T00:50:42;13.77;;;12.17;;
63807;SDS011;49961;43.970;22.868;2022-11-20T00:51:43;14.87;;;12.87;;
63807;SDS011;49961;43.970;22.868;2022-11-20T00:52:43;13.97;;;12.50;;
63807;SDS011;49961;43.970;22.868;2022-11-20T00:53:44;16.73;;;13.33;;
63807;SDS011;49961;43.970;22.868;2022-11-20T00:54:44;14.70;;;13.00;;
63807;SDS011;49961;43.970;22.868;2022-11-20T00:55:58;15.67;;;13.10;;
63807;SDS011;49961;43.970;22.868;2022-11-20T00:57:00;15.97;;;13.63;;
63807;SDS011;49961;43.970;22.868;2022-11-20T00:58:00;15.20;;;13.30;;
63807;SDS011;49961;43.970;22.868;2022-11-20T00:59:01;15.30;;;13.70;;
63807;SDS011;49961;43.970;22.868;2022-11-20T01:00:01;15.07;;;13.47;;
63807;SDS011;49961;43.970;22.868;2022-11-20T01:01:09;14.53;;;13.03;;
63807;SDS011;49961;43.970;22.868;2022-11-20T01:02:11;17.20;;;13.13;;
63807;SDS011;49961;43.970;22.868;2022-11-20T01:03:11;14.43;;;12.80;;
63807;SDS011;49961;43.970;22.868;2022-11-20T01:04:12;16.70;;;13.10;;
63807;SDS011;49961;43.970;22.868;2022-11-20T01:05:12;15.30;;;12.90;;
63807;SDS011;49961;43.970;22.868;2022-11-20T01:06:14;14.57;;;12.63;;
63807;SDS011;49961;43.970;22.868;2022-11-20T01:07:16;15.37;;;13.27;;
63807;SDS011;49961;43.970;22.868;2022-11-20T01:08:17;16.30;;;13.40;;
63807;SDS011;49961;43.970;22.868;2022-11-20T01:09:17;15.43;;;13.83;;
63807;SDS011;49961;43.970;22.868;2022-11-20T01:10:18;19.37;;;14.00;;
63807;SDS011;49961;43.970;22.868;2022-11-20T01:11:20;15.77;;;13.30;;
63807;SDS011;49961;43.970;22.868;2022-11-20T01:12:22;15.50;;;13.90;;
63807;SDS011;49961;43.970;22.868;2022-11-20T01:13:23;16.33;;;14.23;;
63807;SDS011;49961;43.970;22.868;2022-11-20T01:14:38;16.33;;;14.43;;
63807;SDS011;49961;43.970;22.868;2022-11-20T01:15:39;16.40;;;14.70;;
63807;SDS011;49961;43.970;22.868;2022-11-20T01:16:40;16.67;;;14.33;;
63807;SDS011;49961;43.970;22.868;2022-11-20T01:17:48;16.30;;;14.60;;
63807;SDS011;49961;43.970;22.868;2022-11-20T01:18:49;16.83;;;14.47;;
63807;SDS011;49961;43.970;22.868;2022-11-20T01:19:51;17.80;;;15.10;;
63807;SDS011;49961;43.970;22.868;2022-11-20T01:20:52;18.03;;;14.53;;
63807;SDS011;49961;43.970;22.868;2022-11-20T01:21:53;18.37;;;14.47;;
63807;SDS011;49961;43.970;22.868;2022-11-20T01:22:54;16.00;;;14.30;;
63807;SDS011;49961;43.970;22.868;2022-11-20T01:23:55;15.77;;;14.17;;
63807;SDS011;49961;43.970;22.868;2022-11-20T01:24:55;14.90;;;13.40;;
63807;SDS011;49961;43.970;22.868;2022-11-20T01:25:56;16.27;;;14.20;;
63807;SDS011;49961;43.970;22.868;2022-11-20T01:26:56;16.30;;;14.43;;
63807;SDS011;49961;43.970;22.868;2022-11-20T01:27:57;16.87;;;15.00;;
63807;SDS011;49961;43.970;22.868;2022-11-20T01:28:57;18.23;;;14.33;;
63807;SDS011;49961;43.970;22.868;2022-11-20T01:29:58;18.43;;;14.73;;
63807;SDS011;49961;43.970;22.868;2022-11-20T01:30:59;16.43;;;14.67;;
63807;SDS011;49961;43.970;22.868;2022-11-20T01:32:00;16.60;;;14.47;;
63807;SDS011;49961;43.970;22.868;2022-11-20T01:33:00;17.93;;;14.70;;
63807;SDS011;49961;43.970;22.868;2022-11-20T01:34:02;18.23;;;14.93;;
63807;SDS011;49961;43.970;22.868;2022-11-20T01:35:04;18.27;;;14.67;;
63807;SDS011;49961;43.970;22.868;2022-11-20T01:36:05;20.33;;;16.33;;
63807;SDS011;49961;43.970;22.868;2022-11-20T01:37:06;17.07;;;15.27;;
63807;SDS011;49961;43.970;22.868;2022-11-20T01:38:07;16.30;;;14.63;;
63807;SDS011;49961;43.970;22.868;2022-11-20T01:39:12;17.03;;;14.90;;
63807;SDS011;49961;43.970;22.868;2022-11-20T01:40:16;18.23;;;15.60;;
63807;SDS011;49961;43.970;22.868;2022-11-20T01:41:17;17.33;;;15.17;;
63807;SDS011;49961;43.970;22.868;2022-11-20T01:42:36;18.03;;;15.20;;
63807;SDS011;49961;43.970;22.868;2022-11-20T01:43:55;19.70;;;15.67;;
63807;SDS011;49961;43.970;22.868;2022-11-20T01:44:59;18.87;;;15.83;;
63807;SDS011;49961;43.970;22.868;2022-11-20T01:47:03;18.27;;;16.20;;
63807;SDS011;49961;43.970;22.868;2022-11-20T01:48:06;17.83;;;15.87;;
63807;SDS011;49961;43.970;22.868;2022-11-20T01:50:11;17.87;;;15.97;;
63807;SDS011;49961;43.970;22.868;2022-11-20T01:51:30;18.67;;;16.70;;
63807;SDS011;49961;43.970;22.868;2022-11-20T01:53:41;19.20;;;17.17;;
63807;SDS011;49961;43.970;22.868;2022-11-20T01:54:43;19.70;;;17.20;;
63807;SDS011;49961;43.970;22.868;2022-11-20T01:55:50;22.03;;;19.10;;
63807;SDS011;49961;43.970;22.868;2022-11-20T01:56:54;22.17;;;19.10;;
63807;SDS011;49961;43.970;22.868;2022-11-20T01:57:57;21.80;;;19.50;;
63807;SDS011;49961;43.970;22.868;2022-11-20T01:58:59;22.17;;;19.50;;
63807;SDS011;49961;43.970;22.868;2022-11-20T02:01:10;25.77;;;22.50;;
63807;SDS011;49961;43.970;22.868;2022-11-20T02:02:11;27.00;;;23.37;;
63807;SDS011;49961;43.970;22.868;2022-11-20T02:03:12;26.70;;;23.30;;
63807;SDS011;49961;43.970;22.868;2022-11-20T02:04:16;27.33;;;24.00;;
63807;SDS011;49961;43.970;22.868;2022-11-20T02:05:24;27.57;;;24.40;;
63807;SDS011;49961;43.970;22.868;2022-11-20T02:07:17;28.20;;;23.50;;
63807;SDS011;49961;43.970;22.868;2022-11-20T02:08:10;26.80;;;22.27;;
63807;SDS011;49961;43.970;22.868;2022-11-20T02:09:12;28.77;;;23.47;;
63807;SDS011;49961;43.970;22.868;2022-11-20T02:10:14;29.60;;;23.77;;
63807;SDS011;49961;43.970;22.868;2022-11-20T02:11:15;26.43;;;23.00;;
63807;SDS011;49961;43.970;22.868;2022-11-20T02:12:15;28.10;;;23.53;;
63807;SDS011;49961;43.970;22.868;2022-11-20T02:13:34;27.80;;;22.93;;
63807;SDS011;49961;43.970;22.868;2022-11-20T02:14:44;26.73;;;22.53;;
63807;SDS011;49961;43.970;22.868;2022-11-20T02:15:45;29.07;;;25.10;;
63807;SDS011;49961;43.970;22.868;2022-11-20T02:16:47;29.13;;;25.67;;
63807;SDS011;49961;43.970;22.868;2022-11-20T02:17:48;27.90;;;24.90;;
63807;SDS011;49961;43.970;22.868;2022-11-20T02:18:49;29.07;;;25.77;;
63807;SDS011;49961;43.970;22.868;2022-11-20T02:19:50;29.63;;;25.93;;
63807;SDS011;49961;43.970;22.868;2022-11-20T02:20:53;30.30;;;26.03;;
63807;SDS011;49961;43.970;22.868;2022-11-20T02:22:12;31.17;;;27.27;;
63807;SDS011;49961;43.970;22.868;2022-11-20T02:23:31;30.63;;;27.07;;
63807;SDS011;49961;43.970;22.868;2022-11-20T02:24:36;35.40;;;30.07;;
63807;SDS011;49961;43.970;22.868;2022-11-20T02:25:37;34.70;;;30.60;;
63807;SDS011;49961;43.970;22.868;2022-11-20T02:26:47;38.70;;;30.67;;
63807;SDS011;49961;43.970;22.868;2022-11-20T02:27:49;34.07;;;30.37;;
63807;SDS011;49961;43.970;22.868;2022-11-20T02:28:50;34.93;;;30.77;;
63807;SDS011;49961;43.970;22.868;2022-11-20T02:29:58;35.73;;;31.57;;
63807;SDS011;49961;43.970;22.868;2022-11-20T02:31:02;34.70;;;30.90;;
63807;SDS011;49961;43.970;22.868;2022-11-20T02:32:02;35.03;;;31.17;;
63807;SDS011;49961;43.970;22.868;2022-11-20T02:33:03;35.77;;;31.97;;
63807;SDS011;49961;43.970;22.868;2022-11-20T02:34:03;36.80;;;31.30;;
63807;SDS011;49961;43.970;22.868;2022-11-20T02:35:08;39.20;;;31.70;;
63807;SDS011;49961;43.970;22.868;2022-11-20T02:36:18;37.97;;;32.67;;
63807;SDS011;49961;43.970;22.868;2022-11-20T02:37:18;36.60;;;32.60;;
63807;SDS011;49961;43.970;22.868;2022-11-20T02:38:20;37.80;;;33.50;;
63807;SDS011;49961;43.970;22.868;2022-11-20T02:39:20;39.90;;;32.67;;
63807;SDS011;49961;43.970;22.868;2022-11-20T02:40:24;39.00;;;33.13;;
63807;SDS011;49961;43.970;22.868;2022-11-20T02:41:32;40.97;;;34.03;;
63807;SDS011;49961;43.970;22.868;2022-11-20T02:42:35;37.47;;;32.13;;
63807;SDS011;49961;43.970;22.868;2022-11-20T02:43:35;36.93;;;32.63;;
63807;SDS011;49961;43.970;22.868;2022-11-20T02:44:36;37.23;;;32.57;;
63807;SDS011;49961;43.970;22.868;2022-11-20T02:45:36;38.13;;;33.47;;
63807;SDS011;49961;43.970;22.868;2022-11-20T02:46:37;37.53;;;33.03;;
63807;SDS011;49961;43.970;22.868;2022-11-20T02:47:38;37.27;;;31.77;;
63807;SDS011;49961;43.970;22.868;2022-11-20T02:48:38;39.37;;;34.63;;
63807;SDS011;49961;43.970;22.868;2022-11-20T02:49:38;38.70;;;33.83;;
63807;SDS011;49961;43.970;22.868;2022-11-20T02:50:39;40.93;;;33.87;;
63807;SDS011;49961;43.970;22.868;2022-11-20T02:51:40;40.57;;;34.13;;
63807;SDS011;49961;43.970;22.868;2022-11-20T02:52:40;39.50;;;33.73;;
63807;SDS011;49961;43.970;22.868;2022-11-20T02:53:41;37.60;;;33.37;;
63807;SDS011;49961;43.970;22.868;2022-11-20T02:54:41;37.37;;;33.40;;
63807;SDS011;49961;43.970;22.868;2022-11-20T02:55:42;37.07;;;33.07;;
63807;SDS011;49961;43.970;22.868;2022-11-20T02:56:42;36.03;;;32.10;;
63807;SDS011;49961;43.970;22.868;2022-11-20T02:57:43;35.13;;;31.30;;
63807;SDS011;49961;43.970;22.868;2022-11-20T02:58:44;35.17;;;31.47;;
63807;SDS011;49961;43.970;22.868;2022-11-20T02:59:44;35.73;;;31.87;;
63807;SDS011;49961;43.970;22.868;2022-11-20T03:00:45;35.90;;;32.03;;
63807;SDS011;49961;43.970;22.868;2022-11-20T03:01:45;37.23;;;33.07;;
63807;SDS011;49961;43.970;22.868;2022-11-20T03:02:45;36.10;;;32.30;;
63807;SDS011;49961;43.970;22.868;2022-11-20T03:03:46;34.90;;;31.20;;
63807;SDS011;49961;43.970;22.868;2022-11-20T03:04:48;36.87;;;32.30;;
63807;SDS011;49961;43.970;22.868;2022-11-20T03:05:48;35.33;;;31.50;;
63807;SDS011;49961;43.970;22.868;2022-11-20T03:06:49;36.73;;;32.20;;
63807;SDS011;49961;43.970;22.868;2022-11-20T03:07:49;36.80;;;32.27;;
63807;SDS011;49961;43.970;22.868;2022-11-20T03:08:50;35.43;;;31.47;;
63807;SDS011;49961;43.970;22.868;2022-11-20T03:09:50;35.30;;;30.80;;
63807;SDS011;49961;43.970;22.868;2022-11-20T03:10:51;36.43;;;30.67;;
63807;SDS011;49961;43.970;22.868;2022-11-20T03:11:51;38.33;;;31.90;;
63807;SDS011;49961;43.970;22.868;2022-11-20T03:12:52;37.70;;;31.97;;
63807;SDS011;49961;43.970;22.868;2022-11-20T03:13:55;39.30;;;32.17;;
63807;SDS011;49961;43.970;22.868;2022-11-20T03:14:56;39.40;;;32.30;;
63807;SDS011;49961;43.970;22.868;2022-11-20T03:15:56;36.07;;;30.50;;
63807;SDS011;49961;43.970;22.868;2022-11-20T03:16:57;40.70;;;31.10;;
63807;SDS011;49961;43.970;22.868;2022-11-20T03:17:57;40.27;;;31.20;;
63807;SDS011;49961;43.970;22.868;2022-11-20T03:18:58;37.57;;;30.20;;
63807;SDS011;49961;43.970;22.868;2022-11-20T03:19:59;37.57;;;29.87;;
63807;SDS011;49961;43.970;22.868;2022-11-20T03:20:59;39.23;;;31.57;;
63807;SDS011;49961;43.970;22.868;2022-11-20T03:22:00;38.13;;;29.97;;
63807;SDS011;49961;43.970;22.868;2022-11-20T03:23:00;38.43;;;30.97;;
63807;SDS011;49961;43.970;22.868;2022-11-20T03:24:01;37.93;;;30.60;;
63807;SDS011;49961;43.970;22.868;2022-11-20T03:25:02;49.03;;;31.37;;
63807;SDS011;49961;43.970;22.868;2022-11-20T03:27:20;38.57;;;30.40;;
63807;SDS011;49961;43.970;22.868;2022-11-20T03:28:20;37.27;;;29.47;;
63807;SDS011;49961;43.970;22.868;2022-11-20T03:29:21;36.53;;;29.00;;
63807;SDS011;49961;43.970;22.868;2022-11-20T03:30:21;39.40;;;30.77;;
63807;SDS011;49961;43.970;22.868;2022-11-20T03:31:26;38.53;;;30.80;;
63807;SDS011;49961;43.970;22.868;2022-11-20T03:32:28;36.00;;;29.47;;
63807;SDS011;49961;43.970;22.868;2022-11-20T03:33:29;36.00;;;30.53;;
63807;SDS011;49961;43.970;22.868;2022-11-20T03:34:29;36.57;;;29.20;;
63807;SDS011;49961;43.970;22.868;2022-11-20T03:35:29;35.33;;;30.50;;
63807;SDS011;49961;43.970;22.868;2022-11-20T03:36:30;40.50;;;30.23;;
63807;SDS011;49961;43.970;22.868;2022-11-20T03:37:31;36.77;;;30.57;;
63807;SDS011;49961;43.970;22.868;2022-11-20T03:38:32;37.17;;;31.50;;
63807;SDS011;49961;43.970;22.868;2022-11-20T03:39:32;36.47;;;29.93;;
63807;SDS011;49961;43.970;22.868;2022-11-20T03:40:33;36.73;;;29.67;;
63807;SDS011;49961;43.970;22.868;2022-11-20T03:41:38;36.87;;;30.20;;
63807;SDS011;49961;43.970;22.868;2022-11-20T03:42:40;40.93;;;30.60;;
63807;SDS011;49961;43.970;22.868;2022-11-20T03:43:50;36.17;;;28.90;;
63807;SDS011;49961;43.970;22.868;2022-11-20T03:44:52;37.43;;;30.17;;
63807;SDS011;49961;43.970;22.868;2022-11-20T03:45:52;38.67;;;31.47;;
63807;SDS011;49961;43.970;22.868;2022-11-20T03:46:53;37.73;;;30.50;;
63807;SDS011;49961;43.970;22.868;2022-11-20T03:47:53;40.43;;;31.40;;
63807;SDS011;49961;43.970;22.868;2022-11-20T03:48:54;37.40;;;29.67;;
63807;SDS011;49961;43.970;22.868;2022-11-20T03:49:54;35.67;;;30.30;;
63807;SDS011;49961;43.970;22.868;2022-11-20T03:52:11;34.93;;;29.17;;
63807;SDS011;49961;43.970;22.868;2022-11-20T03:53:11;33.27;;;28.97;;
63807;SDS011;49961;43.970;22.868;2022-11-20T03:54:11;34.00;;;27.73;;
63807;SDS011;49961;43.970;22.868;2022-11-20T03:55:12;32.60;;;28.33;;
63807;SDS011;49961;43.970;22.868;2022-11-20T03:56:13;32.97;;;28.17;;
63807;SDS011;49961;43.970;22.868;2022-11-20T03:57:14;32.83;;;27.67;;
63807;SDS011;49961;43.970;22.868;2022-11-20T03:58:15;33.07;;;28.87;;
63807;SDS011;49961;43.970;22.868;2022-11-20T03:59:15;35.80;;;28.20;;
63807;SDS011;49961;43.970;22.868;2022-11-20T04:00:16;33.00;;;28.60;;
63807;SDS011;49961;43.970;22.868;2022-11-20T04:01:18;33.97;;;28.33;;
63807;SDS011;49961;43.970;22.868;2022-11-20T04:02:20;33.63;;;28.27;;
63807;SDS011;49961;43.970;22.868;2022-11-20T04:03:20;33.47;;;29.00;;
63807;SDS011;49961;43.970;22.868;2022-11-20T04:04:21;34.23;;;28.60;;
63807;SDS011;49961;43.970;22.868;2022-11-20T04:05:21;33.30;;;27.73;;
63807;SDS011;49961;43.970;22.868;2022-11-20T04:06:23;34.03;;;28.23;;
63807;SDS011;49961;43.970;22.868;2022-11-20T04:07:25;33.77;;;27.90;;
63807;SDS011;49961;43.970;22.868;2022-11-20T04:08:25;31.57;;;27.63;;
63807;SDS011;49961;43.970;22.868;2022-11-20T04:09:26;30.57;;;26.90;;
63807;SDS011;49961;43.970;22.868;2022-11-20T04:10:26;31.80;;;27.10;;
63807;SDS011;49961;43.970;22.868;2022-11-20T04:11:30;32.47;;;27.73;;
63807;SDS011;49961;43.970;22.868;2022-11-20T04:12:32;30.90;;;27.60;;
63807;SDS011;49961;43.970;22.868;2022-11-20T04:13:33;29.87;;;26.43;;
63807;SDS011;49961;43.970;22.868;2022-11-20T04:14:33;32.97;;;28.27;;
63807;SDS011;49961;43.970;22.868;2022-11-20T04:15:34;32.27;;;28.10;;
63807;SDS011;49961;43.970;22.868;2022-11-20T04:16:35;32.80;;;27.67;;
63807;SDS011;49961;43.970;22.868;2022-11-20T04:17:36;34.97;;;28.17;;
63807;SDS011;49961;43.970;22.868;2022-11-20T04:18:36;32.97;;;27.43;;
63807;SDS011;49961;43.970;22.868;2022-11-20T04:19:37;32.53;;;27.80;;
63807;SDS011;49961;43.970;22.868;2022-11-20T04:20:37;34.80;;;27.60;;
63807;SDS011;49961;43.970;22.868;2022-11-20T04:21:38;30.43;;;27.13;;
63807;SDS011;49961;43.970;22.868;2022-11-20T04:22:38;33.53;;;27.43;;
63807;SDS011;49961;43.970;22.868;2022-11-20T04:23:39;33.57;;;27.43;;
63807;SDS011;49961;43.970;22.868;2022-11-20T04:24:39;30.63;;;26.83;;
63807;SDS011;49961;43.970;22.868;2022-11-20T04:25:39;31.63;;;27.00;;
63807;SDS011;49961;43.970;22.868;2022-11-20T04:26:40;34.87;;;26.77;;
63807;SDS011;49961;43.970;22.868;2022-11-20T04:27:40;30.93;;;26.43;;
63807;SDS011;49961;43.970;22.868;2022-11-20T04:28:41;31.60;;;27.30;;
63807;SDS011;49961;43.970;22.868;2022-11-20T04:29:41;34.83;;;27.27;;
63807;SDS011;49961;43.970;22.868;2022-11-20T04:30:42;30.73;;;26.57;;
63807;SDS011;49961;43.970;22.868;2022-11-20T04:31:42;31.97;;;26.27;;
63807;SDS011;49961;43.970;22.868;2022-11-20T04:32:43;32.17;;;26.17;;
63807;SDS011;49961;43.970;22.868;2022-11-20T04:33:43;30.70;;;26.63;;
63807;SDS011;49961;43.970;22.868;2022-11-20T04:34:44;30.33;;;26.63;;
63807;SDS011;49961;43.970;22.868;2022-11-20T04:35:45;30.30;;;26.17;;
63807;SDS011;49961;43.970;22.868;2022-11-20T04:36:47;30.97;;;26.17;;
63807;SDS011;49961;43.970;22.868;2022-11-20T04:37:50;32.90;;;27.27;;
63807;SDS011;49961;43.970;22.868;2022-11-20T04:39:01;32.03;;;27.00;;
63807;SDS011;49961;43.970;22.868;2022-11-20T04:40:05;34.27;;;27.50;;
63807;SDS011;49961;43.970;22.868;2022-11-20T04:41:06;32.27;;;27.33;;
63807;SDS011;49961;43.970;22.868;2022-11-20T04:42:11;32.63;;;27.50;;
63807;SDS011;49961;43.970;22.868;2022-11-20T04:43:29;31.57;;;27.07;;
63807;SDS011;49961;43.970;22.868;2022-11-20T04:44:30;30.90;;;26.93;;
63807;SDS011;49961;43.970;22.868;2022-11-20T04:45:30;31.07;;;25.83;;
63807;SDS011;49961;43.970;22.868;2022-11-20T04:46:32;30.17;;;26.00;;
63807;SDS011;49961;43.970;22.868;2022-11-20T04:47:34;31.67;;;26.17;;
63807;SDS011;49961;43.970;22.868;2022-11-20T04:48:35;30.03;;;26.47;;
63807;SDS011;49961;43.970;22.868;2022-11-20T04:49:35;32.07;;;26.80;;
63807;SDS011;49961;43.970;22.868;2022-11-20T04:50:39;31.70;;;25.93;;
63807;SDS011;49961;43.970;22.868;2022-11-20T04:51:40;31.47;;;25.70;;
63807;SDS011;49961;43.970;22.868;2022-11-20T04:52:40;30.87;;;26.03;;
63807;SDS011;49961;43.970;22.868;2022-11-20T04:53:41;31.43;;;26.10;;
63807;SDS011;49961;43.970;22.868;2022-11-20T04:54:41;30.23;;;26.13;;
63807;SDS011;49961;43.970;22.868;2022-11-20T04:55:42;30.83;;;26.40;;
63807;SDS011;49961;43.970;22.868;2022-11-20T04:56:42;30.77;;;25.83;;
63807;SDS011;49961;43.970;22.868;2022-11-20T04:57:43;28.67;;;25.07;;
63807;SDS011;49961;43.970;22.868;2022-11-20T04:58:43;29.57;;;25.30;;
63807;SDS011;49961;43.970;22.868;2022-11-20T04:59:44;30.00;;;26.07;;
63807;SDS011;49961;43.970;22.868;2022-11-20T05:00:44;29.13;;;24.13;;
63807;SDS011;49961;43.970;22.868;2022-11-20T05:01:45;28.10;;;25.07;;
63807;SDS011;49961;43.970;22.868;2022-11-20T05:02:45;27.47;;;24.47;;
63807;SDS011;49961;43.970;22.868;2022-11-20T05:03:46;29.33;;;25.43;;
63807;SDS011;49961;43.970;22.868;2022-11-20T05:04:46;27.23;;;24.27;;
63807;SDS011;49961;43.970;22.868;2022-11-20T05:05:47;29.07;;;24.60;;
63807;SDS011;49961;43.970;22.868;2022-11-20T05:06:47;27.43;;;24.07;;
63807;SDS011;49961;43.970;22.868;2022-11-20T05:07:49;28.17;;;23.93;;
63807;SDS011;49961;43.970;22.868;2022-11-20T05:08:49;31.57;;;24.73;;
63807;SDS011;49961;43.970;22.868;2022-11-20T05:09:50;28.03;;;24.23;;
63807;SDS011;49961;43.970;22.868;2022-11-20T05:10:50;29.57;;;24.60;;
63807;SDS011;49961;43.970;22.868;2022-11-20T05:11:51;26.43;;;23.47;;
63807;SDS011;49961;43.970;22.868;2022-11-20T05:12:51;27.87;;;23.90;;
63807;SDS011;49961;43.970;22.868;2022-11-20T05:13:51;26.50;;;23.33;;
63807;SDS011;49961;43.970;22.868;2022-11-20T05:14:52;26.83;;;23.93;;
63807;SDS011;49961;43.970;22.868;2022-11-20T05:15:52;26.37;;;23.20;;
63807;SDS011;49961;43.970;22.868;2022-11-20T05:16:53;26.03;;;22.43;;
63807;SDS011;49961;43.970;22.868;2022-11-20T05:17:53;28.00;;;24.10;;
63807;SDS011;49961;43.970;22.868;2022-11-20T05:18:54;28.03;;;24.10;;
63807;SDS011;49961;43.970;22.868;2022-11-20T05:19:54;28.67;;;23.90;;
63807;SDS011;49961;43.970;22.868;2022-11-20T05:20:56;25.60;;;22.80;;
63807;SDS011;49961;43.970;22.868;2022-11-20T05:21:57;26.13;;;22.37;;
63807;SDS011;49961;43.970;22.868;2022-11-20T05:22:57;29.13;;;23.27;;
63807;SDS011;49961;43.970;22.868;2022-11-20T05:23:58;27.80;;;23.33;;
63807;SDS011;49961;43.970;22.868;2022-11-20T05:24:58;27.33;;;23.97;;
63807;SDS011;49961;43.970;22.868;2022-11-20T05:25:59;27.30;;;24.00;;
63807;SDS011;49961;43.970;22.868;2022-11-20T05:27:00;27.67;;;24.00;;
63807;SDS011;49961;43.970;22.868;2022-11-20T05:28:01;28.33;;;24.80;;
63807;SDS011;49961;43.970;22.868;2022-11-20T05:29:01;29.40;;;25.20;;
63807;SDS011;49961;43.970;22.868;2022-11-20T05:30:02;30.20;;;25.07;;
63807;SDS011;49961;43.970;22.868;2022-11-20T05:31:07;27.73;;;24.73;;
63807;SDS011;49961;43.970;22.868;2022-11-20T05:32:13;31.27;;;25.57;;
63807;SDS011;49961;43.970;22.868;2022-11-20T05:33:14;28.87;;;25.53;;
63807;SDS011;49961;43.970;22.868;2022-11-20T05:34:14;27.77;;;23.47;;
63807;SDS011;49961;43.970;22.868;2022-11-20T05:35:15;28.17;;;24.10;;
63807;SDS011;49961;43.970;22.868;2022-11-20T05:36:15;27.70;;;23.97;;
63807;SDS011;49961;43.970;22.868;2022-11-20T05:37:16;28.07;;;24.03;;
63807;SDS011;49961;43.970;22.868;2022-11-20T05:38:17;28.73;;;23.87;;
63807;SDS011;49961;43.970;22.868;2022-11-20T05:39:17;26.47;;;22.53;;
63807;SDS011;49961;43.970;22.868;2022-11-20T05:40:18;24.83;;;22.13;;
63807;SDS011;49961;43.970;22.868;2022-11-20T05:41:19;24.17;;;20.87;;
63807;SDS011;49961;43.970;22.868;2022-11-20T05:42:20;23.80;;;20.63;;
63807;SDS011;49961;43.970;22.868;2022-11-20T05:43:33;25.60;;;21.10;;
63807;SDS011;49961;43.970;22.868;2022-11-20T05:44:34;25.30;;;21.47;;
63807;SDS011;49961;43.970;22.868;2022-11-20T05:45:35;23.33;;;20.83;;
63807;SDS011;49961;43.970;22.868;2022-11-20T05:46:35;24.23;;;21.10;;
63807;SDS011;49961;43.970;22.868;2022-11-20T05:47:36;23.83;;;21.03;;
63807;SDS011;49961;43.970;22.868;2022-11-20T05:48:36;24.53;;;21.63;;
63807;SDS011;49961;43.970;22.868;2022-11-20T05:49:38;24.87;;;21.53;;
63807;SDS011;49961;43.970;22.868;2022-11-20T05:50:38;26.10;;;21.53;;
63807;SDS011;49961;43.970;22.868;2022-11-20T05:51:39;24.23;;;21.20;;
63807;SDS011;49961;43.970;22.868;2022-11-20T05:52:39;24.10;;;20.87;;
63807;SDS011;49961;43.970;22.868;2022-11-20T05:53:40;24.50;;;21.07;;
63807;SDS011;49961;43.970;22.868;2022-11-20T05:54:40;24.17;;;20.57;;
63807;SDS011;49961;43.970;22.868;2022-11-20T05:55:41;22.60;;;19.80;;
63807;SDS011;49961;43.970;22.868;2022-11-20T05:56:41;22.83;;;20.40;;
63807;SDS011;49961;43.970;22.868;2022-11-20T05:57:42;25.80;;;20.60;;
63807;SDS011;49961;43.970;22.868;2022-11-20T05:58:42;24.33;;;20.63;;
63807;SDS011;49961;43.970;22.868;2022-11-20T05:59:43;24.70;;;19.87;;
63807;SDS011;49961;43.970;22.868;2022-11-20T06:00:43;21.23;;;18.90;;
63807;SDS011;49961;43.970;22.868;2022-11-20T06:01:44;22.67;;;18.87;;
63807;SDS011;49961;43.970;22.868;2022-11-20T06:02:44;21.40;;;18.93;;
63807;SDS011;49961;43.970;22.868;2022-11-20T06:03:45;21.83;;;19.07;;